createdAt,value
2023-05-24T00:00:30.080Z,99439.84
2023-05-24T00:02:57.705Z,99450.69
2023-05-24T00:05:25.998Z,99440.31
2023-05-24T00:07:52.641Z,99454.56
2023-05-24T00:10:19.441Z,99453.03
2023-05-24T00:12:46.191Z,99447.03
2023-05-24T00:15:13.006Z,99445.34
2023-05-24T00:17:41.666Z,99447.75
2023-05-24T00:20:11.840Z,99443.44
2023-05-24T00:22:39.409Z,99447.03
2023-05-24T00:25:06.925Z,99444.56
2023-05-24T00:27:33.768Z,99446.44
2023-05-24T00:30:00.510Z,99444.94
2023-05-24T00:32:27.181Z,99443.63
2023-05-24T00:34:53.962Z,99448.91
2023-05-24T00:37:20.624Z,99440.06
2023-05-24T00:39:47.569Z,99455.88
2023-05-24T00:42:14.192Z,99452.47
2023-05-24T00:44:40.947Z,99450.81
2023-05-24T00:47:07.989Z,99456.81
2023-05-24T00:49:35.455Z,99460.13
2023-05-24T00:52:02.395Z,99460.78
2023-05-24T00:54:29.547Z,99456.19
2023-05-24T00:56:57.260Z,99457.00
2023-05-24T00:59:24.554Z,99453.63
2023-05-24T01:01:51.271Z,99453.63
2023-05-24T01:04:20.530Z,99454.72
2023-05-24T01:07:04.248Z,99454.00
2023-05-24T01:09:43.048Z,99457.75
2023-05-24T01:12:31.065Z,99450.22
2023-05-24T01:15:19.440Z,99454.84
2023-05-24T01:18:16.344Z,99453.22
2023-05-24T01:20:44.631Z,99463.97
2023-05-24T01:23:26.383Z,99457.16
2023-05-24T01:26:32.425Z,99454.53
2023-05-24T01:29:01.425Z,99454.53
2023-05-24T01:31:28.274Z,99462.53
2023-05-24T01:33:54.995Z,99457.16
2023-05-24T01:36:21.773Z,99449.25
2023-05-24T01:38:50.460Z,99455.97
2023-05-24T01:41:24.003Z,99447.78
2023-05-24T01:44:03.774Z,99438.94
2023-05-24T01:46:38.774Z,99448.72
2023-05-24T01:49:31.878Z,99443.53
2023-05-24T01:52:12.361Z,99447.31
2023-05-24T01:54:43.752Z,99439.31
2023-05-24T01:57:11.923Z,99440.16
2023-05-24T01:59:42.358Z,99441.19
2023-05-24T02:02:10.600Z,99442.31
2023-05-24T02:04:37.932Z,99432.88
2023-05-24T02:07:05.016Z,99432.31
2023-05-24T02:09:31.701Z,99438.72
2023-05-24T02:11:58.562Z,99437.03
2023-05-24T02:14:26.425Z,99437.41
2023-05-24T02:16:53.400Z,99436.53
2023-05-24T02:19:20.030Z,99439.47
2023-05-24T02:21:46.737Z,99433.63
2023-05-24T02:24:13.447Z,99438.50
2023-05-24T02:26:40.386Z,99442.06
2023-05-24T02:29:07.015Z,99442.34
2023-05-24T02:31:33.825Z,99437.31
2023-05-24T02:34:00.782Z,99440.13
2023-05-24T02:36:27.656Z,99429.69
2023-05-24T02:38:54.527Z,99434.97
2023-05-24T02:41:22.214Z,99432.56
2023-05-24T02:43:49.077Z,99431.88
2023-05-24T02:46:15.972Z,99431.81
2023-05-24T02:48:42.602Z,99426.63
2023-05-24T02:51:09.264Z,99425.13
2023-05-24T02:53:36.044Z,99423.41
2023-05-24T02:56:02.661Z,99426.16
2023-05-24T02:58:30.459Z,99427.34
2023-05-24T03:00:57.345Z,99431.75
2023-05-24T03:03:24.133Z,99426.47
2023-05-24T03:05:51.003Z,99434.50
2023-05-24T03:08:17.642Z,99436.34
2023-05-24T03:10:44.614Z,99433.06
2023-05-24T03:13:11.365Z,99437.63
2023-05-24T03:15:38.068Z,99440.34
2023-05-24T03:18:04.844Z,99429.94
2023-05-24T03:20:32.022Z,99430.78
2023-05-24T03:22:58.709Z,99429.16
2023-05-24T03:25:27.439Z,99430.09
2023-05-24T03:27:54.161Z,99429.44
2023-05-24T03:30:21.109Z,99422.47
2023-05-24T03:32:47.869Z,99433.66
2023-05-24T03:35:15.056Z,99426.59
2023-05-24T03:37:41.869Z,99432.81
2023-05-24T03:40:08.981Z,99429.09
2023-05-24T03:42:35.675Z,99430.59
2023-05-24T03:45:02.493Z,99435.50
2023-05-24T03:47:29.236Z,99437.78
2023-05-24T03:49:55.961Z,99441.94
2023-05-24T03:52:22.773Z,99443.63
2023-05-24T03:54:49.463Z,99441.59
2023-05-24T03:57:16.197Z,99444.88
2023-05-24T03:59:42.838Z,99446.50
2023-05-24T04:02:09.847Z,99445.22
2023-05-24T04:04:37.534Z,99454.66
2023-05-24T04:07:04.446Z,99457.84
2023-05-24T04:09:31.126Z,99452.50
2023-05-24T04:11:57.759Z,99448.16
2023-05-24T04:14:24.393Z,99455.78
2023-05-24T04:16:51.994Z,99446.78
2023-05-24T04:19:18.667Z,99446.97
2023-05-24T04:21:45.811Z,99446.88
2023-05-24T04:24:12.445Z,99450.16
2023-05-24T04:26:39.370Z,99446.78
2023-05-24T04:29:07.858Z,99456.97
2023-05-24T04:31:35.179Z,99461.88
2023-05-24T04:34:02.189Z,99453.00
2023-05-24T04:36:29.140Z,99455.38
2023-05-24T04:39:02.805Z,99455.66
2023-05-24T04:41:32.126Z,99453.59
2023-05-24T04:44:01.620Z,99456.81
2023-05-24T04:46:28.510Z,99465.09
2023-05-24T04:48:55.521Z,99470.19
2023-05-24T04:51:23.034Z,99463.97
2023-05-24T04:53:49.749Z,99464.16
2023-05-24T04:56:17.095Z,99457.94
2023-05-24T04:58:43.834Z,99454.25
2023-05-24T05:01:10.817Z,99462.81
2023-05-24T05:03:37.683Z,99464.78
2023-05-24T05:06:05.025Z,99466.94
2023-05-24T05:08:31.683Z,99468.06
2023-05-24T05:10:58.828Z,99472.34
2023-05-24T05:13:25.530Z,99472.19
2023-05-24T05:15:52.678Z,99482.28
2023-05-24T05:18:19.463Z,99474.81
2023-05-24T05:20:46.735Z,99483.28
2023-05-24T05:23:13.721Z,99483.09
2023-05-24T05:25:40.423Z,99482.59
2023-05-24T05:28:07.085Z,99479.09
2023-05-24T05:30:33.712Z,99490.88
2023-05-24T05:33:00.623Z,99486.25
2023-05-24T05:35:27.533Z,99487.91
2023-05-24T05:37:54.238Z,99480.19
2023-05-24T05:40:20.931Z,99476.56
2023-05-24T05:42:47.700Z,99481.25
2023-05-24T05:45:14.571Z,99473.72
